This is the latest recevied weather packets stored in our database for station/object K6GKS. If no packets are shown the sender has not sent any weather packets the latest 10 day(s).
| Time | Temp. | Humidity | Pressure | Rain* | Wind** | Luminosity | Snow |
|---|---|---|---|---|---|---|---|
| 1787608622 | 32.78° C | 26% | 1012.1 hPa | 0 mm | - | - | - |
| 1787608443 | 32.78° C | 26% | 1012 hPa | 0 mm | - | - | - |
| 1787608262 | 32.22° C | 26% | 1012.3 hPa | 0 mm | - | - | - |
| 1787608083 | 32.78° C | 24% | 1012 hPa | 0 mm | - | - | - |
| 1787607903 | 32.78° C | 25% | 1012.3 hPa | 0 mm | - | - | - |
| 1787607722 | 32.22° C | 25% | 1012.1 hPa | 0 mm | - | - | - |
| 1787607543 | 32.22° C | 26% | 1012.3 hPa | 0 mm | - | - | - |
| 1787607362 | 32.22° C | 26% | 1012.2 hPa | 0 mm | - | - | - |
| 1787607183 | 32.22° C | 25% | 1012.3 hPa | 0 mm | - | - | - |
| 1787607003 | 32.22° C | 26% | 1012.5 hPa | 0 mm | - | - | - |
| 1787606822 | 32.22° C | 27% | 1012.5 hPa | 0 mm | - | - | - |
| 1787606643 | 32.22° C | 24% | 1012.1 hPa | 0 mm | - | - | - |
| 1787606462 | 32.78° C | 25% | 1012.2 hPa | 0 mm | - | - | - |
| 1787606282 | 32.22° C | 27% | 1012.5 hPa | 0 mm | - | - | - |
| 1787606102 | 32.22° C | 26% | 1012.4 hPa | 0 mm | - | - | - |
| 1787605922 | 32.22° C | 28% | 1012.4 hPa | 0 mm | - | - | - |
| 1787605743 | 31.67° C | 28% | 1012.5 hPa | 0 mm | - | - | - |
| 1787605562 | 31.67° C | 28% | 1012.4 hPa | 0 mm | - | - | - |
| 1787605383 | 31.67° C | 29% | 1012.5 hPa | 0 mm | - | - | - |
| 1787605203 | 31.11° C | 31% | 1012.4 hPa | 0 mm | - | - | - |
| 1787605022 | 31.11° C | 31% | 1012.5 hPa | 0 mm | - | - | - |
| 1787604842 | 31.11° C | 31% | 1012.5 hPa | 0 mm | - | - | - |
| 1787604662 | 31.11° C | 30% | 1012.6 hPa | 0 mm | - | - | - |
| 1787604483 | 30.56° C | 28% | 1012.5 hPa | 0 mm | - | - | - |
| 1787604302 | 30.56° C | 31% | 1012.9 hPa | 0 mm | - | - | - |
* Rain latest hour (hover to see other rain measurements)
** Current wind speed in m/s (hover to see current wind gust speed)